Antelope, Montana
Current Conditions -  °F | °C
As of 9:52 AM on Friday 21 Nov 2014 (Local Time) from KISN Reporting Station
Clear Clear  
Wind Chill: 28°   Ceiling: Unl
Heat Index: 35°   Visibility: 10mi
Dew Point: 25°   Wind: 9mph
Humidity: 67%   Direction: 200°SSW
Pressure: 29.66"   Gusts: NA
Location:  48.69°N, 104.46°W
Report Text: KISN 211652Z AUTO 20008KT 10SM CLR 02/M04 A2966 RMK AO2 SLP072 T00171039
Loading
Personal Weather Stations






























Interactive Weather Map New forecast layout! Learn more

10-Day Weather Forecast

Advertisements
Track Severe Weather on mobile